sensor_id;sensor_type;location;lat;lon;timestamp;P1;durP1;ratioP1;P2;durP2;ratioP2
56523;SDS011;42422;47.540;18.712;2023-12-20T00:01:58;25.98;;;11.57;;
56523;SDS011;42422;47.540;18.712;2023-12-20T00:06:49;31.00;;;12.48;;
56523;SDS011;42422;47.540;18.712;2023-12-20T00:11:39;23.98;;;11.77;;
56523;SDS011;42422;47.540;18.712;2023-12-20T00:14:07;30.10;;;11.83;;
56523;SDS011;42422;47.540;18.712;2023-12-20T00:18:57;30.75;;;12.85;;
56523;SDS011;42422;47.540;18.712;2023-12-20T00:23:47;27.80;;;12.90;;
56523;SDS011;42422;47.540;18.712;2023-12-20T00:28:37;23.58;;;12.13;;
56523;SDS011;42422;47.540;18.712;2023-12-20T00:33:28;22.35;;;11.15;;
56523;SDS011;42422;47.540;18.712;2023-12-20T00:38:18;21.30;;;10.35;;
56523;SDS011;42422;47.540;18.712;2023-12-20T00:43:08;25.20;;;10.07;;
56523;SDS011;42422;47.540;18.712;2023-12-20T00:47:59;22.75;;;12.02;;
56523;SDS011;42422;47.540;18.712;2023-12-20T00:52:49;31.93;;;12.60;;
56523;SDS011;42422;47.540;18.712;2023-12-20T00:57:40;24.27;;;12.05;;
56523;SDS011;42422;47.540;18.712;2023-12-20T01:02:30;24.67;;;12.35;;
56523;SDS011;42422;47.540;18.712;2023-12-20T01:07:21;27.03;;;12.80;;
56523;SDS011;42422;47.540;18.712;2023-12-20T01:12:11;31.07;;;12.33;;
56523;SDS011;42422;47.540;18.712;2023-12-20T01:17:02;31.50;;;14.63;;
56523;SDS011;42422;47.540;18.712;2023-12-20T01:21:53;24.83;;;12.17;;
56523;SDS011;42422;47.540;18.712;2023-12-20T01:26:43;23.83;;;11.38;;
56523;SDS011;42422;47.540;18.712;2023-12-20T01:31:34;25.15;;;11.93;;
56523;SDS011;42422;47.540;18.712;2023-12-20T01:36:24;29.73;;;14.88;;
56523;SDS011;42422;47.540;18.712;2023-12-20T01:41:14;32.37;;;13.70;;
56523;SDS011;42422;47.540;18.712;2023-12-20T01:46:05;26.25;;;12.07;;
56523;SDS011;42422;47.540;18.712;2023-12-20T01:50:57;29.77;;;11.85;;
56523;SDS011;42422;47.540;18.712;2023-12-20T01:55:47;29.80;;;12.63;;
56523;SDS011;42422;47.540;18.712;2023-12-20T01:58:14;29.07;;;14.37;;
56523;SDS011;42422;47.540;18.712;2023-12-20T02:03:05;37.22;;;15.30;;
56523;SDS011;42422;47.540;18.712;2023-12-20T02:07:56;29.77;;;13.67;;
56523;SDS011;42422;47.540;18.712;2023-12-20T02:12:46;28.67;;;12.80;;
56523;SDS011;42422;47.540;18.712;2023-12-20T02:17:36;31.23;;;13.52;;
56523;SDS011;42422;47.540;18.712;2023-12-20T02:20:03;36.43;;;15.20;;
56523;SDS011;42422;47.540;18.712;2023-12-20T02:24:53;30.48;;;14.18;;
56523;SDS011;42422;47.540;18.712;2023-12-20T02:29:44;35.84;;;14.74;;
56523;SDS011;42422;47.540;18.712;2023-12-20T02:32:10;29.57;;;14.27;;
56523;SDS011;42422;47.540;18.712;2023-12-20T02:37:00;34.03;;;14.27;;
56523;SDS011;42422;47.540;18.712;2023-12-20T02:41:51;28.63;;;14.10;;
56523;SDS011;42422;47.540;18.712;2023-12-20T02:46:41;28.42;;;13.00;;
56523;SDS011;42422;47.540;18.712;2023-12-20T02:51:31;24.27;;;11.80;;
56523;SDS011;42422;47.540;18.712;2023-12-20T02:56:22;27.88;;;14.48;;
56523;SDS011;42422;47.540;18.712;2023-12-20T03:01:12;36.53;;;14.10;;
56523;SDS011;42422;47.540;18.712;2023-12-20T03:06:02;32.40;;;13.80;;
56523;SDS011;42422;47.540;18.712;2023-12-20T03:10:53;29.25;;;14.15;;
56523;SDS011;42422;47.540;18.712;2023-12-20T03:15:43;33.97;;;14.07;;
56523;SDS011;42422;47.540;18.712;2023-12-20T03:20:34;32.25;;;14.73;;
56523;SDS011;42422;47.540;18.712;2023-12-20T03:25:24;28.77;;;13.35;;
56523;SDS011;42422;47.540;18.712;2023-12-20T03:30:14;27.70;;;13.23;;
56523;SDS011;42422;47.540;18.712;2023-12-20T03:35:05;20.67;;;12.33;;
56523;SDS011;42422;47.540;18.712;2023-12-20T03:39:55;27.05;;;13.90;;
56523;SDS011;42422;47.540;18.712;2023-12-20T03:44:46;28.73;;;14.30;;
56523;SDS011;42422;47.540;18.712;2023-12-20T03:49:36;29.20;;;14.50;;
56523;SDS011;42422;47.540;18.712;2023-12-20T03:52:03;28.17;;;14.57;;
56523;SDS011;42422;47.540;18.712;2023-12-20T03:56:54;33.00;;;13.80;;
56523;SDS011;42422;47.540;18.712;2023-12-20T04:01:44;27.58;;;15.15;;
56523;SDS011;42422;47.540;18.712;2023-12-20T04:06:35;33.30;;;15.13;;
56523;SDS011;42422;47.540;18.712;2023-12-20T04:11:25;27.60;;;11.55;;
56523;SDS011;42422;47.540;18.712;2023-12-20T04:16:15;28.88;;;12.60;;
56523;SDS011;42422;47.540;18.712;2023-12-20T04:21:06;39.45;;;16.08;;
56523;SDS011;42422;47.540;18.712;2023-12-20T04:25:57;24.92;;;13.07;;
56523;SDS011;42422;47.540;18.712;2023-12-20T04:30:47;26.35;;;12.00;;
56523;SDS011;42422;47.540;18.712;2023-12-20T04:35:37;21.05;;;11.05;;
56523;SDS011;42422;47.540;18.712;2023-12-20T04:40:28;25.98;;;12.07;;
56523;SDS011;42422;47.540;18.712;2023-12-20T04:45:18;26.30;;;12.43;;
56523;SDS011;42422;47.540;18.712;2023-12-20T04:47:44;22.97;;;11.60;;
56523;SDS011;42422;47.540;18.712;2023-12-20T04:50:11;24.67;;;12.57;;
56523;SDS011;42422;47.540;18.712;2023-12-20T04:52:38;32.47;;;14.00;;
56523;SDS011;42422;47.540;18.712;2023-12-20T04:57:28;26.17;;;12.57;;
56523;SDS011;42422;47.540;18.712;2023-12-20T05:02:18;22.02;;;10.40;;
56523;SDS011;42422;47.540;18.712;2023-12-20T05:07:09;33.38;;;14.98;;
56523;SDS011;42422;47.540;18.712;2023-12-20T05:11:59;24.85;;;14.52;;
56523;SDS011;42422;47.540;18.712;2023-12-20T05:16:50;27.87;;;11.87;;
56523;SDS011;42422;47.540;18.712;2023-12-20T05:21:41;21.13;;;9.82;;
56523;SDS011;42422;47.540;18.712;2023-12-20T05:26:32;23.17;;;11.87;;
56523;SDS011;42422;47.540;18.712;2023-12-20T05:31:22;26.38;;;12.55;;
56523;SDS011;42422;47.540;18.712;2023-12-20T05:36:12;34.97;;;16.10;;
56523;SDS011;42422;47.540;18.712;2023-12-20T05:38:40;30.03;;;12.43;;
56523;SDS011;42422;47.540;18.712;2023-12-20T05:43:30;27.57;;;11.43;;
56523;SDS011;42422;47.540;18.712;2023-12-20T05:48:20;23.80;;;10.48;;
56523;SDS011;42422;47.540;18.712;2023-12-20T05:53:10;21.70;;;10.38;;
56523;SDS011;42422;47.540;18.712;2023-12-20T05:58:01;23.70;;;10.43;;
56523;SDS011;42422;47.540;18.712;2023-12-20T06:02:51;16.43;;;9.57;;
56523;SDS011;42422;47.540;18.712;2023-12-20T06:07:41;22.92;;;11.38;;
56523;SDS011;42422;47.540;18.712;2023-12-20T06:12:32;23.17;;;10.83;;
56523;SDS011;42422;47.540;18.712;2023-12-20T06:14:58;21.90;;;9.40;;
56523;SDS011;42422;47.540;18.712;2023-12-20T06:19:48;24.77;;;10.40;;
56523;SDS011;42422;47.540;18.712;2023-12-20T06:24:39;28.13;;;11.57;;
56523;SDS011;42422;47.540;18.712;2023-12-20T06:29:29;22.50;;;11.15;;
56523;SDS011;42422;47.540;18.712;2023-12-20T06:31:56;25.80;;;10.17;;
56523;SDS011;42422;47.540;18.712;2023-12-20T06:36:46;20.73;;;11.00;;
56523;SDS011;42422;47.540;18.712;2023-12-20T06:41:37;26.13;;;10.03;;
56523;SDS011;42422;47.540;18.712;2023-12-20T06:46:27;29.63;;;15.05;;
56523;SDS011;42422;47.540;18.712;2023-12-20T06:51:18;28.77;;;11.60;;
56523;SDS011;42422;47.540;18.712;2023-12-20T06:53:45;25.83;;;12.03;;
56523;SDS011;42422;47.540;18.712;2023-12-20T06:58:35;26.88;;;10.57;;
56523;SDS011;42422;47.540;18.712;2023-12-20T07:01:01;44.67;;;16.80;;
56523;SDS011;42422;47.540;18.712;2023-12-20T07:05:52;27.10;;;12.93;;
56523;SDS011;42422;47.540;18.712;2023-12-20T07:10:42;36.50;;;15.05;;
56523;SDS011;42422;47.540;18.712;2023-12-20T07:15:33;26.70;;;12.73;;
56523;SDS011;42422;47.540;18.712;2023-12-20T07:20:25;29.35;;;13.20;;
56523;SDS011;42422;47.540;18.712;2023-12-20T07:25:15;27.00;;;13.55;;
56523;SDS011;42422;47.540;18.712;2023-12-20T07:30:06;28.85;;;13.10;;
56523;SDS011;42422;47.540;18.712;2023-12-20T07:34:57;26.67;;;12.70;;
56523;SDS011;42422;47.540;18.712;2023-12-20T07:39:47;34.42;;;12.88;;
56523;SDS011;42422;47.540;18.712;2023-12-20T07:44:38;30.20;;;12.02;;
56523;SDS011;42422;47.540;18.712;2023-12-20T07:49:28;28.63;;;12.20;;
56523;SDS011;42422;47.540;18.712;2023-12-20T07:54:18;24.52;;;12.40;;
56523;SDS011;42422;47.540;18.712;2023-12-20T07:59:09;18.65;;;10.50;;
56523;SDS011;42422;47.540;18.712;2023-12-20T08:03:59;23.17;;;12.35;;
56523;SDS011;42422;47.540;18.712;2023-12-20T08:08:50;31.97;;;11.27;;
56523;SDS011;42422;47.540;18.712;2023-12-20T08:13:40;26.13;;;12.60;;
56523;SDS011;42422;47.540;18.712;2023-12-20T08:18:31;25.10;;;11.47;;
56523;SDS011;42422;47.540;18.712;2023-12-20T08:23:21;22.27;;;10.63;;
56523;SDS011;42422;47.540;18.712;2023-12-20T08:28:11;19.73;;;9.63;;
56523;SDS011;42422;47.540;18.712;2023-12-20T08:33:02;27.23;;;12.20;;
56523;SDS011;42422;47.540;18.712;2023-12-20T08:37:52;29.70;;;10.73;;
56523;SDS011;42422;47.540;18.712;2023-12-20T08:42:43;29.27;;;12.85;;
56523;SDS011;42422;47.540;18.712;2023-12-20T08:47:34;43.30;;;14.47;;
56523;SDS011;42422;47.540;18.712;2023-12-20T08:52:25;32.80;;;14.73;;
56523;SDS011;42422;47.540;18.712;2023-12-20T08:54:52;39.03;;;15.43;;
56523;SDS011;42422;47.540;18.712;2023-12-20T08:57:19;30.70;;;13.53;;
56523;SDS011;42422;47.540;18.712;2023-12-20T08:59:45;33.40;;;13.40;;
56523;SDS011;42422;47.540;18.712;2023-12-20T09:04:35;41.85;;;20.25;;
56523;SDS011;42422;47.540;18.712;2023-12-20T09:09:26;42.97;;;17.87;;
56523;SDS011;42422;47.540;18.712;2023-12-20T09:14:16;44.90;;;21.23;;
56523;SDS011;42422;47.540;18.712;2023-12-20T09:19:07;52.87;;;21.60;;
56523;SDS011;42422;47.540;18.712;2023-12-20T09:23:57;48.80;;;21.60;;
56523;SDS011;42422;47.540;18.712;2023-12-20T09:26:23;52.80;;;22.07;;
56523;SDS011;42422;47.540;18.712;2023-12-20T09:31:14;48.00;;;20.92;;
56523;SDS011;42422;47.540;18.712;2023-12-20T09:36:04;52.17;;;21.92;;
56523;SDS011;42422;47.540;18.712;2023-12-20T09:40:55;50.05;;;19.08;;
56523;SDS011;42422;47.540;18.712;2023-12-20T09:45:46;39.63;;;17.67;;
56523;SDS011;42422;47.540;18.712;2023-12-20T09:50:37;44.13;;;19.63;;
56523;SDS011;42422;47.540;18.712;2023-12-20T09:55:29;48.47;;;20.42;;
56523;SDS011;42422;47.540;18.712;2023-12-20T10:00:20;51.50;;;21.95;;
56523;SDS011;42422;47.540;18.712;2023-12-20T10:05:13;42.97;;;20.20;;
56523;SDS011;42422;47.540;18.712;2023-12-20T10:07:40;52.20;;;21.53;;
56523;SDS011;42422;47.540;18.712;2023-12-20T10:12:30;46.58;;;19.48;;
56523;SDS011;42422;47.540;18.712;2023-12-20T10:17:21;51.22;;;19.27;;
56523;SDS011;42422;47.540;18.712;2023-12-20T10:22:11;43.97;;;17.50;;
56523;SDS011;42422;47.540;18.712;2023-12-20T10:27:02;59.93;;;24.77;;
56523;SDS011;42422;47.540;18.712;2023-12-20T10:29:36;93.40;;;40.63;;
56523;SDS011;42422;47.540;18.712;2023-12-20T10:35:03;43.50;;;20.40;;
56523;SDS011;42422;47.540;18.712;2023-12-20T10:39:53;39.42;;;18.80;;
56523;SDS011;42422;47.540;18.712;2023-12-20T10:42:22;47.10;;;19.33;;
56523;SDS011;42422;47.540;18.712;2023-12-20T10:44:50;45.17;;;18.73;;
56523;SDS011;42422;47.540;18.712;2023-12-20T10:47:16;45.40;;;21.43;;
56523;SDS011;42422;47.540;18.712;2023-12-20T10:52:07;34.62;;;15.46;;
56523;SDS011;42422;47.540;18.712;2023-12-20T10:56:58;51.47;;;19.73;;
56523;SDS011;42422;47.540;18.712;2023-12-20T11:01:48;29.37;;;13.23;;
56523;SDS011;42422;47.540;18.712;2023-12-20T11:04:15;28.00;;;13.60;;
56523;SDS011;42422;47.540;18.712;2023-12-20T11:06:47;20.93;;;11.63;;
56523;SDS011;42422;47.540;18.712;2023-12-20T11:14:23;37.20;;;16.67;;
56523;SDS011;42422;47.540;18.712;2023-12-20T11:16:50;22.93;;;12.77;;
56523;SDS011;42422;47.540;18.712;2023-12-20T11:21:41;16.38;;;8.73;;
56523;SDS011;42422;47.540;18.712;2023-12-20T11:24:06;14.77;;;8.20;;
56523;SDS011;42422;47.540;18.712;2023-12-20T11:31:40;12.45;;;7.57;;
56523;SDS011;42422;47.540;18.712;2023-12-20T11:34:12;14.65;;;8.30;;
56523;SDS011;42422;47.540;18.712;2023-12-20T11:36:38;13.25;;;7.75;;
56523;SDS011;42422;47.540;18.712;2023-12-20T11:39:04;14.55;;;8.32;;
56523;SDS011;42422;47.540;18.712;2023-12-20T11:41:33;11.80;;;6.25;;
56523;SDS011;42422;47.540;18.712;2023-12-20T11:43:58;11.43;;;6.05;;
56523;SDS011;42422;47.540;18.712;2023-12-20T11:46:25;11.98;;;6.00;;
56523;SDS011;42422;47.540;18.712;2023-12-20T11:48:51;10.00;;;5.72;;
56523;SDS011;42422;47.540;18.712;2023-12-20T11:53:41;8.44;;;4.60;;
56523;SDS011;42422;47.540;18.712;2023-12-20T11:56:09;10.48;;;5.55;;
56523;SDS011;42422;47.540;18.712;2023-12-20T11:58:35;5.97;;;4.13;;
56523;SDS011;42422;47.540;18.712;2023-12-20T12:03:27;7.72;;;4.68;;
56523;SDS011;42422;47.540;18.712;2023-12-20T12:05:52;9.40;;;5.03;;
56523;SDS011;42422;47.540;18.712;2023-12-20T12:10:45;5.30;;;3.40;;
56523;SDS011;42422;47.540;18.712;2023-12-20T12:13:12;6.07;;;3.83;;
56523;SDS011;42422;47.540;18.712;2023-12-20T12:15:39;9.15;;;5.78;;
56523;SDS011;42422;47.540;18.712;2023-12-20T12:18:04;7.80;;;4.63;;
56523;SDS011;42422;47.540;18.712;2023-12-20T12:20:30;11.20;;;5.72;;
56523;SDS011;42422;47.540;18.712;2023-12-20T12:23:02;9.30;;;5.70;;
56523;SDS011;42422;47.540;18.712;2023-12-20T12:25:28;9.75;;;4.93;;
56523;SDS011;42422;47.540;18.712;2023-12-20T12:27:54;8.07;;;3.95;;
56523;SDS011;42422;47.540;18.712;2023-12-20T12:30:19;9.57;;;5.10;;
56523;SDS011;42422;47.540;18.712;2023-12-20T12:32:44;10.70;;;5.60;;
56523;SDS011;42422;47.540;18.712;2023-12-20T12:35:10;10.57;;;5.03;;
56523;SDS011;42422;47.540;18.712;2023-12-20T12:37:36;9.82;;;5.05;;
56523;SDS011;42422;47.540;18.712;2023-12-20T12:40:04;10.73;;;5.93;;
56523;SDS011;42422;47.540;18.712;2023-12-20T12:42:30;12.65;;;6.25;;
56523;SDS011;42422;47.540;18.712;2023-12-20T12:44:55;15.05;;;6.80;;
56523;SDS011;42422;47.540;18.712;2023-12-20T12:49:46;9.95;;;5.28;;
56523;SDS011;42422;47.540;18.712;2023-12-20T12:54:37;11.02;;;6.03;;
56523;SDS011;42422;47.540;18.712;2023-12-20T12:57:02;13.68;;;6.68;;
56523;SDS011;42422;47.540;18.712;2023-12-20T12:59:27;12.88;;;6.20;;
56523;SDS011;42422;47.540;18.712;2023-12-20T13:01:53;10.73;;;5.80;;
56523;SDS011;42422;47.540;18.712;2023-12-20T13:06:43;11.20;;;5.50;;
56523;SDS011;42422;47.540;18.712;2023-12-20T13:09:09;10.45;;;5.40;;
56523;SDS011;42422;47.540;18.712;2023-12-20T13:11:34;8.75;;;5.38;;
56523;SDS011;42422;47.540;18.712;2023-12-20T13:14:00;12.73;;;6.18;;
56523;SDS011;42422;47.540;18.712;2023-12-20T13:18:50;13.48;;;5.53;;
56523;SDS011;42422;47.540;18.712;2023-12-20T13:21:15;12.30;;;5.78;;
56523;SDS011;42422;47.540;18.712;2023-12-20T13:26:07;50.97;;;21.85;;
56523;SDS011;42422;47.540;18.712;2023-12-20T13:28:32;12.70;;;6.93;;
56523;SDS011;42422;47.540;18.712;2023-12-20T13:33:22;13.70;;;6.30;;
56523;SDS011;42422;47.540;18.712;2023-12-20T13:35:48;13.32;;;7.55;;
56523;SDS011;42422;47.540;18.712;2023-12-20T13:40:39;11.82;;;5.70;;
56523;SDS011;42422;47.540;18.712;2023-12-20T13:45:29;10.05;;;5.68;;
56523;SDS011;42422;47.540;18.712;2023-12-20T13:47:54;11.23;;;5.85;;
56523;SDS011;42422;47.540;18.712;2023-12-20T13:50:19;10.25;;;5.68;;
56523;SDS011;42422;47.540;18.712;2023-12-20T13:55:11;11.45;;;4.65;;
56523;SDS011;42422;47.540;18.712;2023-12-20T13:57:36;11.15;;;5.60;;
56523;SDS011;42422;47.540;18.712;2023-12-20T14:00:06;10.32;;;6.10;;
56523;SDS011;42422;47.540;18.712;2023-12-20T14:02:37;9.73;;;5.82;;
56523;SDS011;42422;47.540;18.712;2023-12-20T14:05:03;12.88;;;6.25;;
56523;SDS011;42422;47.540;18.712;2023-12-20T14:09:54;10.40;;;5.07;;
56523;SDS011;42422;47.540;18.712;2023-12-20T14:14:45;12.95;;;6.78;;
56523;SDS011;42422;47.540;18.712;2023-12-20T14:19:36;12.45;;;5.97;;
56523;SDS011;42422;47.540;18.712;2023-12-20T14:22:01;12.90;;;6.18;;
56523;SDS011;42422;47.540;18.712;2023-12-20T14:24:27;8.80;;;4.30;;
56523;SDS011;42422;47.540;18.712;2023-12-20T14:29:18;9.48;;;5.00;;
56523;SDS011;42422;47.540;18.712;2023-12-20T14:34:08;8.63;;;4.30;;
56523;SDS011;42422;47.540;18.712;2023-12-20T14:38:58;8.98;;;4.94;;
56523;SDS011;42422;47.540;18.712;2023-12-20T14:43:50;8.27;;;4.43;;
56523;SDS011;42422;47.540;18.712;2023-12-20T14:46:16;8.32;;;5.30;;
56523;SDS011;42422;47.540;18.712;2023-12-20T14:51:07;9.38;;;6.03;;
56523;SDS011;42422;47.540;18.712;2023-12-20T14:53:32;10.05;;;5.35;;
56523;SDS011;42422;47.540;18.712;2023-12-20T14:58:22;11.43;;;5.20;;
56523;SDS011;42422;47.540;18.712;2023-12-20T15:03:13;8.58;;;5.26;;
56523;SDS011;42422;47.540;18.712;2023-12-20T15:08:04;9.53;;;5.10;;
56523;SDS011;42422;47.540;18.712;2023-12-20T15:12:55;10.55;;;5.28;;
56523;SDS011;42422;47.540;18.712;2023-12-20T15:15:20;11.30;;;5.60;;
56523;SDS011;42422;47.540;18.712;2023-12-20T15:20:11;9.90;;;6.37;;
56523;SDS011;42422;47.540;18.712;2023-12-20T15:25:02;11.77;;;5.30;;
56523;SDS011;42422;47.540;18.712;2023-12-20T15:27:29;11.68;;;6.15;;
56523;SDS011;42422;47.540;18.712;2023-12-20T15:32:20;11.10;;;5.20;;
56523;SDS011;42422;47.540;18.712;2023-12-20T15:37:11;9.32;;;5.40;;
56523;SDS011;42422;47.540;18.712;2023-12-20T15:42:01;13.80;;;5.73;;
56523;SDS011;42422;47.540;18.712;2023-12-20T15:46:52;12.00;;;5.33;;
56523;SDS011;42422;47.540;18.712;2023-12-20T15:49:17;11.85;;;6.70;;
56523;SDS011;42422;47.540;18.712;2023-12-20T15:51:44;14.73;;;6.40;;
56523;SDS011;42422;47.540;18.712;2023-12-20T15:54:09;13.45;;;6.60;;
56523;SDS011;42422;47.540;18.712;2023-12-20T15:58:59;13.13;;;6.65;;
56523;SDS011;42422;47.540;18.712;2023-12-20T16:01:25;12.27;;;6.07;;
56523;SDS011;42422;47.540;18.712;2023-12-20T16:06:15;13.88;;;6.75;;
56523;SDS011;42422;47.540;18.712;2023-12-20T16:11:06;14.02;;;7.60;;
56523;SDS011;42422;47.540;18.712;2023-12-20T16:13:31;10.80;;;6.22;;
56523;SDS011;42422;47.540;18.712;2023-12-20T16:18:21;13.25;;;6.93;;
56523;SDS011;42422;47.540;18.712;2023-12-20T16:20:47;16.13;;;8.18;;
56523;SDS011;42422;47.540;18.712;2023-12-20T16:23:12;21.17;;;10.75;;
56523;SDS011;42422;47.540;18.712;2023-12-20T16:28:03;19.50;;;9.43;;
56523;SDS011;42422;47.540;18.712;2023-12-20T16:30:29;20.98;;;10.65;;
56523;SDS011;42422;47.540;18.712;2023-12-20T16:35:19;19.85;;;9.48;;
56523;SDS011;42422;47.540;18.712;2023-12-20T16:40:10;19.65;;;9.38;;
56523;SDS011;42422;47.540;18.712;2023-12-20T16:45:00;15.53;;;7.80;;
56523;SDS011;42422;47.540;18.712;2023-12-20T16:47:26;17.13;;;7.85;;
56523;SDS011;42422;47.540;18.712;2023-12-20T16:52:16;15.88;;;7.50;;
56523;SDS011;42422;47.540;18.712;2023-12-20T16:57:06;12.00;;;6.07;;
56523;SDS011;42422;47.540;18.712;2023-12-20T17:01:57;8.40;;;5.17;;
56523;SDS011;42422;47.540;18.712;2023-12-20T17:04:22;9.65;;;5.10;;
56523;SDS011;42422;47.540;18.712;2023-12-20T17:09:13;9.10;;;4.43;;
56523;SDS011;42422;47.540;18.712;2023-12-20T17:11:40;12.77;;;6.25;;
56523;SDS011;42422;47.540;18.712;2023-12-20T17:16:31;9.33;;;5.10;;
56523;SDS011;42422;47.540;18.712;2023-12-20T17:21:21;9.43;;;5.60;;
56523;SDS011;42422;47.540;18.712;2023-12-20T17:26:12;13.07;;;6.07;;
56523;SDS011;42422;47.540;18.712;2023-12-20T17:28:38;9.35;;;5.70;;
56523;SDS011;42422;47.540;18.712;2023-12-20T17:33:28;9.77;;;4.70;;
56523;SDS011;42422;47.540;18.712;2023-12-20T17:38:18;15.30;;;6.70;;
56523;SDS011;42422;47.540;18.712;2023-12-20T17:43:09;19.20;;;9.67;;
56523;SDS011;42422;47.540;18.712;2023-12-20T17:48:00;10.23;;;4.13;;
56523;SDS011;42422;47.540;18.712;2023-12-20T17:52:50;7.90;;;3.70;;
56523;SDS011;42422;47.540;18.712;2023-12-20T17:57:40;10.04;;;4.34;;
56523;SDS011;42422;47.540;18.712;2023-12-20T18:02:31;10.26;;;3.60;;
56523;SDS011;42422;47.540;18.712;2023-12-20T18:07:21;5.80;;;3.27;;
56523;SDS011;42422;47.540;18.712;2023-12-20T18:12:13;5.03;;;3.30;;
56523;SDS011;42422;47.540;18.712;2023-12-20T18:14:38;6.97;;;3.22;;
56523;SDS011;42422;47.540;18.712;2023-12-20T18:19:29;7.63;;;3.47;;
56523;SDS011;42422;47.540;18.712;2023-12-20T18:21:55;5.57;;;3.67;;
56523;SDS011;42422;47.540;18.712;2023-12-20T18:24:22;6.27;;;3.63;;
56523;SDS011;42422;47.540;18.712;2023-12-20T18:29:13;8.23;;;4.00;;
56523;SDS011;42422;47.540;18.712;2023-12-20T18:34:04;6.47;;;3.27;;
56523;SDS011;42422;47.540;18.712;2023-12-20T18:38:55;5.32;;;3.50;;
56523;SDS011;42422;47.540;18.712;2023-12-20T18:41:21;12.48;;;5.75;;
56523;SDS011;42422;47.540;18.712;2023-12-20T18:43:47;21.05;;;8.32;;
56523;SDS011;42422;47.540;18.712;2023-12-20T18:48:38;11.10;;;4.53;;
56523;SDS011;42422;47.540;18.712;2023-12-20T18:51:08;19.80;;;8.10;;
56523;SDS011;42422;47.540;18.712;2023-12-20T18:53:34;14.43;;;6.68;;
56523;SDS011;42422;47.540;18.712;2023-12-20T18:55:59;11.07;;;5.05;;
56523;SDS011;42422;47.540;18.712;2023-12-20T19:00:55;7.97;;;4.03;;
56523;SDS011;42422;47.540;18.712;2023-12-20T19:05:47;30.13;;;12.18;;
56523;SDS011;42422;47.540;18.712;2023-12-20T19:08:12;29.48;;;11.20;;
56523;SDS011;42422;47.540;18.712;2023-12-20T19:13:03;21.38;;;10.27;;
56523;SDS011;42422;47.540;18.712;2023-12-20T19:17:54;5.75;;;3.13;;
56523;SDS011;42422;47.540;18.712;2023-12-20T19:22:46;8.30;;;3.80;;
56523;SDS011;42422;47.540;18.712;2023-12-20T19:25:12;10.30;;;4.78;;
56523;SDS011;42422;47.540;18.712;2023-12-20T19:30:04;7.50;;;4.50;;
56523;SDS011;42422;47.540;18.712;2023-12-20T19:34:55;7.88;;;4.18;;
56523;SDS011;42422;47.540;18.712;2023-12-20T19:37:21;7.55;;;3.97;;
56523;SDS011;42422;47.540;18.712;2023-12-20T19:39:47;7.10;;;3.50;;
56523;SDS011;42422;47.540;18.712;2023-12-20T19:42:13;7.72;;;4.13;;
56523;SDS011;42422;47.540;18.712;2023-12-20T19:44:39;7.88;;;4.10;;
56523;SDS011;42422;47.540;18.712;2023-12-20T19:47:05;7.68;;;4.20;;
56523;SDS011;42422;47.540;18.712;2023-12-20T19:51:56;7.15;;;3.70;;
56523;SDS011;42422;47.540;18.712;2023-12-20T19:56:47;8.95;;;4.50;;
56523;SDS011;42422;47.540;18.712;2023-12-20T19:59:13;7.53;;;4.22;;
56523;SDS011;42422;47.540;18.712;2023-12-20T20:01:39;7.45;;;5.32;;
56523;SDS011;42422;47.540;18.712;2023-12-20T20:04:09;9.65;;;5.07;;
56523;SDS011;42422;47.540;18.712;2023-12-20T20:06:35;7.85;;;4.40;;
56523;SDS011;42422;47.540;18.712;2023-12-20T20:09:01;7.28;;;4.32;;
56523;SDS011;42422;47.540;18.712;2023-12-20T20:11:29;6.10;;;4.20;;
56523;SDS011;42422;47.540;18.712;2023-12-20T20:13:56;7.22;;;4.32;;
56523;SDS011;42422;47.540;18.712;2023-12-20T20:16:23;6.95;;;4.15;;
56523;SDS011;42422;47.540;18.712;2023-12-20T20:18:48;8.98;;;3.80;;
56523;SDS011;42422;47.540;18.712;2023-12-20T20:21:14;6.88;;;3.80;;
56523;SDS011;42422;47.540;18.712;2023-12-20T20:26:06;4.10;;;3.45;;
56523;SDS011;42422;47.540;18.712;2023-12-20T20:30:57;17.15;;;7.70;;
56523;SDS011;42422;47.540;18.712;2023-12-20T20:35:48;10.33;;;5.23;;
56523;SDS011;42422;47.540;18.712;2023-12-20T20:40:39;7.87;;;4.93;;
56523;SDS011;42422;47.540;18.712;2023-12-20T20:45:31;9.90;;;4.47;;
56523;SDS011;42422;47.540;18.712;2023-12-20T20:47:56;7.72;;;4.40;;
56523;SDS011;42422;47.540;18.712;2023-12-20T20:52:48;6.57;;;3.63;;
56523;SDS011;42422;47.540;18.712;2023-12-20T20:55:14;10.50;;;4.50;;
56523;SDS011;42422;47.540;18.712;2023-12-20T21:00:05;3.97;;;2.90;;
56523;SDS011;42422;47.540;18.712;2023-12-20T21:02:31;4.55;;;2.67;;
56523;SDS011;42422;47.540;18.712;2023-12-20T21:07:21;6.37;;;2.10;;
56523;SDS011;42422;47.540;18.712;2023-12-20T21:09:46;5.85;;;2.53;;
56523;SDS011;42422;47.540;18.712;2023-12-20T21:12:13;7.13;;;2.40;;
56523;SDS011;42422;47.540;18.712;2023-12-20T21:14:38;4.65;;;2.58;;
56523;SDS011;42422;47.540;18.712;2023-12-20T21:19:28;5.37;;;2.40;;
56523;SDS011;42422;47.540;18.712;2023-12-20T21:24:19;3.83;;;2.08;;
56523;SDS011;42422;47.540;18.712;2023-12-20T21:26:44;3.90;;;2.03;;
56523;SDS011;42422;47.540;18.712;2023-12-20T21:29:09;5.47;;;2.47;;
56523;SDS011;42422;47.540;18.712;2023-12-20T21:34:00;3.63;;;2.17;;
56523;SDS011;42422;47.540;18.712;2023-12-20T21:36:25;3.92;;;2.58;;
56523;SDS011;42422;47.540;18.712;2023-12-20T21:41:16;6.20;;;2.70;;
56523;SDS011;42422;47.540;18.712;2023-12-20T21:46:06;3.92;;;2.33;;
56523;SDS011;42422;47.540;18.712;2023-12-20T21:48:31;4.50;;;2.88;;
56523;SDS011;42422;47.540;18.712;2023-12-20T21:53:22;6.95;;;2.78;;
56523;SDS011;42422;47.540;18.712;2023-12-20T21:55:47;5.05;;;2.80;;
56523;SDS011;42422;47.540;18.712;2023-12-20T21:58:13;3.95;;;2.67;;
56523;SDS011;42422;47.540;18.712;2023-12-20T22:00:38;5.43;;;3.42;;
56523;SDS011;42422;47.540;18.712;2023-12-20T22:05:32;5.43;;;3.07;;
56523;SDS011;42422;47.540;18.712;2023-12-20T22:10:24;4.97;;;2.90;;
56523;SDS011;42422;47.540;18.712;2023-12-20T22:15:15;4.17;;;2.63;;
56523;SDS011;42422;47.540;18.712;2023-12-20T22:17:40;3.80;;;2.63;;
56523;SDS011;42422;47.540;18.712;2023-12-20T22:22:31;4.73;;;2.77;;
56523;SDS011;42422;47.540;18.712;2023-12-20T22:24:56;6.70;;;3.13;;
56523;SDS011;42422;47.540;18.712;2023-12-20T22:29:46;4.68;;;2.40;;
56523;SDS011;42422;47.540;18.712;2023-12-20T22:34:36;4.97;;;2.80;;
56523;SDS011;42422;47.540;18.712;2023-12-20T22:37:02;8.45;;;2.97;;
56523;SDS011;42422;47.540;18.712;2023-12-20T22:39:28;5.10;;;2.40;;
56523;SDS011;42422;47.540;18.712;2023-12-20T22:44:18;3.57;;;1.80;;
56523;SDS011;42422;47.540;18.712;2023-12-20T22:46:43;3.20;;;1.50;;
56523;SDS011;42422;47.540;18.712;2023-12-20T22:51:34;2.63;;;1.65;;
56523;SDS011;42422;47.540;18.712;2023-12-20T22:56:25;4.07;;;1.80;;
56523;SDS011;42422;47.540;18.712;2023-12-20T22:58:51;4.50;;;2.20;;
56523;SDS011;42422;47.540;18.712;2023-12-20T23:03:41;2.33;;;1.50;;
56523;SDS011;42422;47.540;18.712;2023-12-20T23:06:06;2.28;;;1.60;;
56523;SDS011;42422;47.540;18.712;2023-12-20T23:10:57;3.60;;;1.40;;
56523;SDS011;42422;47.540;18.712;2023-12-20T23:15:47;3.50;;;1.25;;